Time;durP1;ratioP1;P1;durP2;ratioP2;P2;SDS_P1;SDS_P2;PMS_P1;PMS_P2;Temp;Humidity;BMP_temperature;BMP_pressure;BME280_temperature;BME280_humidity;BME280_pressure;Samples;Min_cycle;Max_cycle;Signal;HPM_P1;HPM_P2
2023/03/14 00:01:50;;;;;;;;;;;13.50;78.00;;;;;;5091767;28;19908;-36
2023/03/14 00:04:15;;;;;;;;;;;13.50;78.60;;;;;;5091387;28;19908;-35
2023/03/14 00:06:41;;;;;;;;;;;13.50;78.10;;;;;;5090370;28;19908;-33
2023/03/14 00:09:06;;;;;;;;;;;13.40;78.30;;;;;;5091747;28;19912;-33
2023/03/14 00:11:32;;;;;;;;;;;13.40;78.30;;;;;;5092013;28;20422;-35
2023/03/14 00:13:58;;;;;;;;;;;13.40;78.30;;;;;;5091619;28;19916;-35
2023/03/14 00:16:23;;;;;;;;;;;13.50;78.40;;;;;;5091997;28;19926;-34
2023/03/14 00:18:48;;;;;;;;;;;13.40;78.30;;;;;;5091725;28;19915;-34
2023/03/14 00:21:14;;;;;;;;;;;13.40;78.20;;;;;;5091913;28;19969;-36
2023/03/14 00:23:40;;;;;;;;;;;13.40;78.50;;;;;;5091567;28;19909;-40
2023/03/14 00:26:17;;;;;;;;;;;13.40;78.90;;;;;;5091584;28;19999;-31
2023/03/14 00:28:42;;;;;;;;;;;13.40;78.80;;;;;;5091333;28;20273;-34
2023/03/14 00:31:09;;;;;;;;;;;13.30;79.10;;;;;;5091545;28;19919;-35
2023/03/14 00:33:35;;;;;;;;;;;13.20;79.20;;;;;;5090445;28;19908;-32
2023/03/14 00:36:02;;;;;;;;;;;13.10;79.30;;;;;;5091349;28;20010;-32
2023/03/14 00:38:29;;;;;;;;;;;13.10;79.50;;;;;;5091462;28;20105;-34
2023/03/14 00:40:54;;;;;;;;;;;13.00;79.60;;;;;;5091388;28;19912;-30
2023/03/14 00:43:23;;;;;;;;;;;12.90;79.60;;;;;;5091272;28;20486;-30
2023/03/14 00:45:52;;;;;;;;;;;12.80;79.60;;;;;;5091321;28;20326;-33
2023/03/14 00:48:18;;;;;;;;;;;12.80;79.80;;;;;;5089740;28;19992;-29
2023/03/14 00:50:44;;;;;;;;;;;12.80;79.70;;;;;;5091233;28;19908;-34
2023/03/14 00:53:10;;;;;;;;;;;12.70;79.50;;;;;;5091240;28;19919;-33
2023/03/14 00:55:39;;;;;;;;;;;12.70;79.50;;;;;;5091129;28;19912;-32
2023/03/14 00:58:06;;;;;;;;;;;12.70;79.30;;;;;;5091500;28;19908;-33
2023/03/14 01:00:31;;;;;;;;;;;12.60;78.90;;;;;;5091248;28;19908;-34
2023/03/14 01:02:57;;;;;;;;;;;12.60;78.70;;;;;;5091117;28;20295;-32
2023/03/14 01:05:22;;;;;;;;;;;12.50;78.70;;;;;;5091170;28;19908;-36
2023/03/14 01:07:48;;;;;;;;;;;12.50;78.70;;;;;;5090655;28;19951;-30
2023/03/14 01:10:13;;;;;;;;;;;12.40;78.70;;;;;;5090449;28;20322;-36
2023/03/14 01:12:39;;;;;;;;;;;12.40;78.80;;;;;;5090875;28;20344;-32
2023/03/14 01:15:05;;;;;;;;;;;12.40;78.80;;;;;;5090910;28;19935;-30
2023/03/14 01:17:30;;;;;;;;;;;12.40;78.90;;;;;;5094322;28;20291;-34
2023/03/14 01:19:56;;;;;;;;;;;12.40;78.90;;;;;;5094844;28;19932;-30
2023/03/14 01:22:21;;;;;;;;;;;12.40;78.90;;;;;;5093189;28;19908;-36
2023/03/14 01:24:47;;;;;;;;;;;12.40;78.90;;;;;;5094683;28;20453;-34
2023/03/14 01:27:12;;;;;;;;;;;12.40;78.90;;;;;;5094457;28;20267;-34
2023/03/14 01:29:38;;;;;;;;;;;12.40;78.90;;;;;;5094381;28;19984;-31
2023/03/14 01:32:04;;;;;;;;;;;12.30;78.90;;;;;;5094538;28;20000;-33
2023/03/14 01:34:29;;;;;;;;;;;12.30;78.80;;;;;;5094361;28;19916;-36
2023/03/14 01:36:55;;;;;;;;;;;12.30;78.60;;;;;;5094483;28;19955;-34
2023/03/14 01:39:20;;;;;;;;;;;12.30;78.60;;;;;;5094258;28;20356;-34
2023/03/14 01:41:46;;;;;;;;;;;12.30;78.50;;;;;;5094291;28;19934;-43
2023/03/14 01:44:12;;;;;;;;;;;12.30;78.50;;;;;;5094526;28;19998;-30
2023/03/14 01:46:38;;;;;;;;;;;12.30;78.50;;;;;;5094509;28;19913;-37
2023/03/14 01:49:07;;;;;;;;;;;12.30;78.60;;;;;;5094217;28;20007;-32
2023/03/14 01:51:37;;;;;;;;;;;12.30;78.70;;;;;;5094182;28;19983;-38
2023/03/14 01:54:05;;;;;;;;;;;12.30;78.90;;;;;;5094160;28;19916;-37
2023/03/14 01:56:31;;;;;;;;;;;12.20;78.90;;;;;;5094125;28;20574;-34
2023/03/14 01:58:58;;;;;;;;;;;12.10;79.10;;;;;;5094026;28;19927;-35
2023/03/14 02:01:24;;;;;;;;;;;12.00;79.70;;;;;;5093916;28;19915;-33
2023/03/14 02:03:53;;;;;;;;;;;11.90;80.50;;;;;;5092528;28;19920;-35
2023/03/14 02:06:20;;;;;;;;;;;11.70;81.40;;;;;;5093875;28;19908;-31
2023/03/14 02:08:49;;;;;;;;;;;11.60;82.10;;;;;;5093462;28;19916;-29
2023/03/14 02:11:15;;;;;;;;;;;11.40;82.50;;;;;;5093670;28;19931;-34
2023/03/14 02:13:41;;;;;;;;;;;11.30;83.60;;;;;;5093311;28;19908;-33
2023/03/14 02:16:07;;;;;;;;;;;11.20;83.60;;;;;;5093630;28;20423;-34
2023/03/14 02:18:32;;;;;;;;;;;11.00;84.10;;;;;;5093638;28;20360;-32
2023/03/14 02:21:01;;;;;;;;;;;10.90;84.50;;;;;;5093731;28;19910;-33
2023/03/14 02:23:34;;;;;;;;;;;10.80;85.80;;;;;;5093647;28;19914;-33
2023/03/14 02:26:06;;;;;;;;;;;10.80;85.80;;;;;;5093589;28;19912;-33
2023/03/14 02:28:31;;;;;;;;;;;10.70;86.10;;;;;;5093202;28;20446;-34
2023/03/14 02:30:56;;;;;;;;;;;10.60;86.50;;;;;;5093606;28;19960;-30
2023/03/14 02:33:22;;;;;;;;;;;10.60;86.70;;;;;;5093658;28;19966;-31
2023/03/14 02:35:52;;;;;;;;;;;10.50;87.10;;;;;;5093462;28;19919;-32
2023/03/14 02:38:23;;;;;;;;;;;10.50;87.20;;;;;;5093417;28;20385;-31
2023/03/14 02:40:49;;;;;;;;;;;10.50;87.40;;;;;;5093663;28;20382;-32
2023/03/14 02:43:15;;;;;;;;;;;10.40;87.70;;;;;;5093582;28;20275;-29
2023/03/14 02:45:42;;;;;;;;;;;10.40;88.00;;;;;;5093296;28;19908;-32
2023/03/14 02:48:10;;;;;;;;;;;10.40;87.70;;;;;;5093236;28;19916;-32
2023/03/14 02:50:35;;;;;;;;;;;10.50;87.60;;;;;;5093460;28;19944;-29
2023/03/14 02:53:01;;;;;;;;;;;10.50;87.50;;;;;;5093136;28;20462;-32
2023/03/14 02:55:26;;;;;;;;;;;10.50;87.40;;;;;;5092965;28;20015;-29
2023/03/14 02:57:52;;;;;;;;;;;10.50;87.50;;;;;;5093105;28;20382;-33
2023/03/14 03:00:18;;;;;;;;;;;10.50;87.40;;;;;;5091509;28;19943;-39
2023/03/14 03:02:43;;;;;;;;;;;10.60;87.30;;;;;;5093113;28;20255;-32
2023/03/14 03:05:09;;;;;;;;;;;10.60;87.10;;;;;;5093099;28;19986;-31
2023/03/14 03:07:34;;;;;;;;;;;10.70;87.10;;;;;;5092711;28;19931;-35
2023/03/14 03:10:00;;;;;;;;;;;10.70;87.00;;;;;;5092937;28;20382;-32
2023/03/14 03:12:25;;;;;;;;;;;10.70;86.90;;;;;;5092577;28;19973;-28
2023/03/14 03:14:51;;;;;;;;;;;10.70;86.90;;;;;;5092550;28;19912;-33
2023/03/14 03:17:16;;;;;;;;;;;10.70;86.90;;;;;;5092734;28;19909;-41
2023/03/14 03:19:42;;;;;;;;;;;10.80;87.60;;;;;;5092704;28;19908;-31
2023/03/14 03:22:08;;;;;;;;;;;10.70;87.00;;;;;;5092516;28;19986;-31
2023/03/14 03:24:33;;;;;;;;;;;10.70;87.00;;;;;;5092447;28;19955;-31
2023/03/14 03:26:59;;;;;;;;;;;10.70;87.60;;;;;;5092441;28;19916;-33
2023/03/14 03:29:24;;;;;;;;;;;10.70;87.00;;;;;;5092178;28;20010;-28
2023/03/14 03:31:49;;;;;;;;;;;10.70;87.00;;;;;;5092355;28;19912;-36
2023/03/14 03:34:15;;;;;;;;;;;10.70;87.00;;;;;;5092352;28;19984;-37
2023/03/14 03:36:40;;;;;;;;;;;10.70;87.00;;;;;;5092519;28;19915;-38
2023/03/14 03:39:06;;;;;;;;;;;10.70;86.90;;;;;;5092047;28;19958;-37
2023/03/14 03:41:32;;;;;;;;;;;10.70;86.90;;;;;;5092276;28;20367;-36
2023/03/14 03:43:58;;;;;;;;;;;10.70;86.80;;;;;;5092286;28;19947;-37
2023/03/14 03:46:23;;;;;;;;;;;10.70;86.80;;;;;;5092179;28;20335;-35
2023/03/14 03:48:53;;;;;;;;;;;10.70;86.70;;;;;;5092553;28;19988;-36
2023/03/14 03:51:19;;;;;;;;;;;10.80;86.80;;;;;;5092191;28;20006;-36
2023/03/14 03:53:44;;;;;;;;;;;10.80;86.70;;;;;;5092151;28;20444;-36
2023/03/14 03:56:10;;;;;;;;;;;10.80;86.60;;;;;;5091838;28;19918;-37
2023/03/14 03:58:37;;;;;;;;;;;10.80;86.60;;;;;;5092018;28;20577;-36
2023/03/14 04:01:02;;;;;;;;;;;10.80;86.60;;;;;;5091966;28;20324;-35
2023/03/14 04:03:28;;;;;;;;;;;10.80;86.60;;;;;;5091868;28;19908;-36
2023/03/14 04:06:20;;;;;;;;;;;10.80;86.50;;;;;;5091774;28;19915;-35
2023/03/14 04:08:45;;;;;;;;;;;10.90;86.60;;;;;;5089491;28;19908;-36
2023/03/14 04:11:11;;;;;;;;;;;10.90;86.40;;;;;;5091831;28;19915;-35
2023/03/14 04:13:36;;;;;;;;;;;10.90;86.30;;;;;;5090296;28;20337;-36
2023/03/14 04:16:02;;;;;;;;;;;10.90;86.30;;;;;;5091487;28;19912;-36
2023/03/14 04:18:29;;;;;;;;;;;10.90;86.20;;;;;;5091657;28;19916;-35
2023/03/14 04:20:55;;;;;;;;;;;10.90;86.20;;;;;;5091611;28;19915;-34
2023/03/14 04:23:23;;;;;;;;;;;10.90;86.20;;;;;;5091735;28;19912;-34
2023/03/14 04:25:52;;;;;;;;;;;10.90;86.20;;;;;;5091802;28;19988;-35
2023/03/14 04:28:18;;;;;;;;;;;10.90;86.20;;;;;;5091677;28;19908;-35
2023/03/14 04:30:43;;;;;;;;;;;10.90;86.10;;;;;;5091188;28;19927;-34
2023/03/14 04:33:09;;;;;;;;;;;10.90;86.00;;;;;;5091573;28;19912;-35
2023/03/14 04:35:35;;;;;;;;;;;10.90;86.00;;;;;;5091628;28;19920;-36
2023/03/14 04:38:00;;;;;;;;;;;10.90;85.90;;;;;;5091200;28;19908;-35
2023/03/14 04:40:26;;;;;;;;;;;10.90;85.80;;;;;;5091318;28;19915;-36
2023/03/14 04:42:51;;;;;;;;;;;11.00;85.80;;;;;;5091270;28;19959;-36
2023/03/14 04:45:17;;;;;;;;;;;11.00;85.70;;;;;;5091341;28;19908;-38
2023/03/14 04:47:42;;;;;;;;;;;11.00;85.70;;;;;;5091178;28;20439;-36
2023/03/14 04:50:09;;;;;;;;;;;11.00;85.60;;;;;;5092775;28;20288;-37
2023/03/14 04:52:34;;;;;;;;;;;11.00;85.50;;;;;;5095333;28;20006;-35
2023/03/14 04:55:00;;;;;;;;;;;11.00;85.50;;;;;;5095292;28;19951;-36
2023/03/14 04:57:25;;;;;;;;;;;11.00;85.40;;;;;;5095361;28;19908;-36
2023/03/14 04:59:51;;;;;;;;;;;11.00;85.40;;;;;;5095205;28;20360;-36
2023/03/14 05:02:16;;;;;;;;;;;11.00;85.30;;;;;;5095258;28;20006;-36
2023/03/14 05:04:42;;;;;;;;;;;11.00;85.20;;;;;;5095059;28;19908;-36
2023/03/14 05:07:07;;;;;;;;;;;11.10;85.20;;;;;;5095033;28;20375;-36
2023/03/14 05:09:33;;;;;;;;;;;11.10;85.10;;;;;;5094967;28;20332;-36
2023/03/14 05:11:58;;;;;;;;;;;11.10;85.10;;;;;;5095351;28;19915;-37
2023/03/14 05:14:24;;;;;;;;;;;11.00;85.00;;;;;;5094822;28;19912;-36
2023/03/14 05:16:49;;;;;;;;;;;11.00;85.10;;;;;;5095256;28;19935;-36
2023/03/14 05:19:15;;;;;;;;;;;11.10;85.10;;;;;;5095226;28;19947;-36
2023/03/14 05:21:40;;;;;;;;;;;11.00;85.10;;;;;;5094808;28;20399;-35
2023/03/14 05:24:06;;;;;;;;;;;11.00;85.10;;;;;;5094766;28;19908;-37
2023/03/14 05:26:31;;;;;;;;;;;11.00;85.00;;;;;;5094658;28;19908;-36
2023/03/14 05:28:56;;;;;;;;;;;11.00;85.00;;;;;;5094574;28;20003;-36
2023/03/14 05:31:22;;;;;;;;;;;11.00;85.00;;;;;;5094556;28;20356;-35
2023/03/14 05:33:47;;;;;;;;;;;11.00;85.00;;;;;;5094538;28;19915;-36
2023/03/14 05:36:13;;;;;;;;;;;11.00;85.10;;;;;;5094419;28;19916;-36
2023/03/14 05:38:40;;;;;;;;;;;11.00;85.20;;;;;;5094075;28;20317;-35
2023/03/14 05:41:06;;;;;;;;;;;11.00;85.20;;;;;;5094483;28;19943;-36
2023/03/14 05:43:31;;;;;;;;;;;10.90;85.10;;;;;;5094744;28;20271;-36
2023/03/14 05:45:57;;;;;;;;;;;10.90;85.20;;;;;;5094386;28;19912;-36
2023/03/14 05:48:22;;;;;;;;;;;10.90;85.20;;;;;;5094187;28;19914;-36
2023/03/14 05:50:48;;;;;;;;;;;10.90;85.30;;;;;;5094366;28;19908;-36
2023/03/14 05:53:14;;;;;;;;;;;10.90;85.30;;;;;;5094213;28;19933;-36
2023/03/14 05:55:40;;;;;;;;;;;10.90;85.40;;;;;;5094185;28;19912;-35
2023/03/14 05:58:05;;;;;;;;;;;10.90;85.40;;;;;;5094230;28;19908;-36
2023/03/14 06:00:31;;;;;;;;;;;10.80;85.40;;;;;;5094115;28;19916;-36
2023/03/14 06:02:56;;;;;;;;;;;10.90;85.60;;;;;;5093547;28;20427;-34
2023/03/14 06:05:22;;;;;;;;;;;10.90;85.50;;;;;;5094293;28;19919;-36
2023/03/14 06:07:47;;;;;;;;;;;10.90;85.90;;;;;;5094372;28;19970;-36
2023/03/14 06:10:12;;;;;;;;;;;10.90;85.70;;;;;;5093944;28;19989;-35
2023/03/14 06:12:38;;;;;;;;;;;10.80;85.80;;;;;;5093885;28;20147;-36
2023/03/14 06:15:04;;;;;;;;;;;10.90;85.80;;;;;;5094055;28;19916;-35
2023/03/14 06:17:29;;;;;;;;;;;10.80;85.90;;;;;;5094111;28;20347;-34
2023/03/14 06:19:55;;;;;;;;;;;10.80;85.80;;;;;;5093879;28;19909;-36
2023/03/14 06:22:20;;;;;;;;;;;10.80;86.00;;;;;;5093808;28;20269;-35
2023/03/14 06:24:46;;;;;;;;;;;10.80;86.00;;;;;;5093749;28;19915;-36
2023/03/14 06:27:11;;;;;;;;;;;10.80;86.10;;;;;;5093739;28;19961;-36
2023/03/14 06:29:37;;;;;;;;;;;10.80;86.20;;;;;;5092115;28;19920;-36
2023/03/14 06:32:02;;;;;;;;;;;10.80;86.30;;;;;;5093539;28;20430;-36
2023/03/14 06:34:28;;;;;;;;;;;10.80;86.30;;;;;;5093833;28;19942;-36
2023/03/14 06:36:53;;;;;;;;;;;10.80;86.60;;;;;;5093912;28;20354;-35
2023/03/14 06:39:19;;;;;;;;;;;10.80;86.40;;;;;;5093596;28;19916;-37
2023/03/14 06:41:44;;;;;;;;;;;10.90;86.50;;;;;;5093555;28;20321;-36
2023/03/14 06:44:10;;;;;;;;;;;10.80;86.30;;;;;;5093480;28;20343;-36
2023/03/14 06:46:35;;;;;;;;;;;10.90;86.50;;;;;;5093289;28;20010;-37
2023/03/14 06:49:01;;;;;;;;;;;10.90;86.50;;;;;;5093562;28;20368;-35
2023/03/14 06:51:26;;;;;;;;;;;10.90;86.60;;;;;;5093695;28;19919;-36
2023/03/14 06:53:52;;;;;;;;;;;10.90;86.70;;;;;;5093702;28;20367;-34
2023/03/14 06:56:17;;;;;;;;;;;11.00;86.70;;;;;;5093095;28;19916;-36
2023/03/14 06:58:44;;;;;;;;;;;10.90;86.80;;;;;;5093192;28;19938;-33
2023/03/14 07:01:22;;;;;;;;;;;10.90;86.80;;;;;;5093461;28;19916;-35
2023/03/14 07:03:47;;;;;;;;;;;10.90;86.80;;;;;;5093646;28;19951;-36
2023/03/14 07:06:14;;;;;;;;;;;10.90;87.00;;;;;;5093214;28;19916;-34
2023/03/14 07:08:41;;;;;;;;;;;10.90;87.00;;;;;;5093245;28;19924;-36
2023/03/14 07:11:07;;;;;;;;;;;11.00;87.20;;;;;;5093004;28;19920;-36
2023/03/14 07:13:32;;;;;;;;;;;11.00;87.20;;;;;;5092384;28;19980;-35
2023/03/14 07:15:58;;;;;;;;;;;11.10;87.20;;;;;;5093287;28;19920;-35
2023/03/14 07:18:23;;;;;;;;;;;11.10;87.60;;;;;;5091566;28;20280;-35
2023/03/14 07:20:49;;;;;;;;;;;11.10;87.50;;;;;;5091458;28;19923;-37
2023/03/14 07:23:14;;;;;;;;;;;11.10;87.60;;;;;;5092676;28;19912;-35
2023/03/14 07:25:40;;;;;;;;;;;11.00;87.80;;;;;;5092878;28;19912;-36
2023/03/14 07:28:06;;;;;;;;;;;11.00;87.70;;;;;;5093127;28;19912;-35
2023/03/14 07:30:31;;;;;;;;;;;11.00;88.20;;;;;;5092465;28;19927;-36
2023/03/14 07:32:57;;;;;;;;;;;10.90;88.40;;;;;;5093139;28;20342;-35
2023/03/14 07:35:22;;;;;;;;;;;10.80;88.00;;;;;;5092534;28;20018;-33
2023/03/14 07:37:48;;;;;;;;;;;10.70;88.20;;;;;;5092625;28;19994;-35
2023/03/14 07:40:16;;;;;;;;;;;10.50;88.30;;;;;;5092700;28;19912;-34
2023/03/14 07:42:42;;;;;;;;;;;10.40;88.90;;;;;;5092488;28;19935;-34
2023/03/14 07:45:09;;;;;;;;;;;10.30;89.00;;;;;;5092620;28;20321;-35
2023/03/14 07:47:34;;;;;;;;;;;10.20;89.00;;;;;;5092800;28;19961;-34
2023/03/14 07:50:00;;;;;;;;;;;10.10;89.00;;;;;;5092928;28;19912;-37
2023/03/14 07:52:25;;;;;;;;;;;10.00;89.00;;;;;;5092622;28;19912;-35
2023/03/14 07:54:51;;;;;;;;;;;9.80;89.20;;;;;;5092320;28;20007;-32
2023/03/14 07:57:16;;;;;;;;;;;9.70;89.30;;;;;;5092356;28;19912;-34
2023/03/14 07:59:42;;;;;;;;;;;9.60;89.30;;;;;;5092634;28;19912;-35
2023/03/14 08:02:12;;;;;;;;;;;9.40;89.40;;;;;;5092639;28;19916;-35
2023/03/14 08:04:38;;;;;;;;;;;9.30;89.90;;;;;;5092229;28;19923;-35
2023/03/14 08:07:03;;;;;;;;;;;9.20;90.10;;;;;;5092336;28;20291;-34
2023/03/14 08:09:28;;;;;;;;;;;9.10;90.10;;;;;;5092165;28;19919;-35
2023/03/14 08:11:54;;;;;;;;;;;9.10;90.20;;;;;;5092158;28;20398;-34
2023/03/14 08:14:20;;;;;;;;;;;9.00;90.30;;;;;;5092150;28;19920;-35
2023/03/14 08:16:45;;;;;;;;;;;8.90;90.30;;;;;;5092195;28;19916;-35
2023/03/14 08:19:11;;;;;;;;;;;8.90;90.40;;;;;;5092288;28;19912;-33
2023/03/14 08:21:36;;;;;;;;;;;8.80;90.50;;;;;;5092105;28;19920;-35
2023/03/14 08:24:02;;;;;;;;;;;8.80;90.60;;;;;;5092065;28;19912;-34
2023/03/14 08:26:28;;;;;;;;;;;8.80;90.50;;;;;;5091727;28;19912;-35
2023/03/14 08:28:53;;;;;;;;;;;8.80;90.60;;;;;;5091789;28;20283;-34
2023/03/14 08:31:19;;;;;;;;;;;8.80;90.60;;;;;;5091841;28;19913;-35
2023/03/14 08:33:44;;;;;;;;;;;8.80;90.60;;;;;;5091843;28;20007;-35
2023/03/14 08:36:10;;;;;;;;;;;8.80;90.70;;;;;;5092044;28;19985;-35
2023/03/14 08:38:35;;;;;;;;;;;8.80;90.70;;;;;;5092154;28;19916;-35
2023/03/14 08:41:02;;;;;;;;;;;8.80;90.50;;;;;;5091777;28;19919;-34
2023/03/14 08:43:28;;;;;;;;;;;8.80;90.60;;;;;;5091647;28;19919;-35
2023/03/14 08:45:56;;;;;;;;;;;8.70;90.50;;;;;;5090312;28;19965;-34
2023/03/14 08:48:22;;;;;;;;;;;8.60;90.50;;;;;;5091496;28;19919;-34
2023/03/14 08:50:48;;;;;;;;;;;8.50;90.20;;;;;;5092017;28;19912;-36
2023/03/14 08:53:13;;;;;;;;;;;8.30;90.20;;;;;;5091973;28;20021;-35
2023/03/14 08:55:39;;;;;;;;;;;8.20;90.20;;;;;;5091838;28;20403;-36
2023/03/14 08:58:04;;;;;;;;;;;8.00;90.20;;;;;;5091997;28;19955;-35
2023/03/14 09:00:30;;;;;;;;;;;7.90;90.20;;;;;;5091623;28;19916;-36
2023/03/14 09:02:55;;;;;;;;;;;7.80;90.00;;;;;;5091806;28;19919;-36
2023/03/14 09:05:21;;;;;;;;;;;7.70;90.00;;;;;;5091471;28;20324;-36
2023/03/14 09:07:46;;;;;;;;;;;7.50;90.00;;;;;;5091540;28;19912;-36
2023/03/14 09:10:12;;;;;;;;;;;7.50;90.10;;;;;;5091244;28;19972;-35
2023/03/14 09:12:37;;;;;;;;;;;7.50;90.20;;;;;;5091271;28;19919;-35
2023/03/14 09:15:03;;;;;;;;;;;7.50;90.20;;;;;;5091390;28;19916;-35
2023/03/14 09:17:29;;;;;;;;;;;7.40;90.20;;;;;;5091388;28;20290;-35
2023/03/14 09:19:54;;;;;;;;;;;7.40;90.20;;;;;;5091210;28;19913;-34
2023/03/14 09:22:20;;;;;;;;;;;7.40;90.00;;;;;;5091346;28;19916;-35
2023/03/14 09:24:46;;;;;;;;;;;7.30;90.00;;;;;;5091295;28;19976;-35
2023/03/14 09:27:11;;;;;;;;;;;7.30;89.80;;;;;;5091107;28;20398;-35
2023/03/14 09:29:37;;;;;;;;;;;7.20;90.10;;;;;;5090690;28;19921;-35
2023/03/14 09:32:03;;;;;;;;;;;7.30;90.00;;;;;;5091070;28;19912;-33
2023/03/14 09:34:28;;;;;;;;;;;7.30;89.80;;;;;;5090911;28;19916;-35
2023/03/14 09:36:54;;;;;;;;;;;7.40;89.70;;;;;;5091934;28;19912;-35
2023/03/14 09:39:20;;;;;;;;;;;7.40;89.00;;;;;;5094671;28;19923;-36
2023/03/14 09:41:50;;;;;;;;;;;7.50;88.40;;;;;;5094687;28;19919;-36
2023/03/14 09:44:39;;;;;;;;;;;7.50;87.50;;;;;;5094701;28;19965;-33
2023/03/14 09:47:10;;;;;;;;;;;7.50;87.90;;;;;;5088956;28;19912;-36
2023/03/14 09:49:38;;;;;;;;;;;7.60;88.00;;;;;;5094512;28;19947;-34
2023/03/14 09:52:15;;;;;;;;;;;7.50;86.90;;;;;;5094453;28;19912;-35
2023/03/14 09:55:01;;;;;;;;;;;7.60;86.60;;;;;;5094335;28;19924;-36
2023/03/14 09:57:27;;;;;;;;;;;7.60;86.00;;;;;;5093080;28;19930;-35
2023/03/14 10:00:09;;;;;;;;;;;7.60;86.00;;;;;;5094375;28;19994;-35
2023/03/14 10:02:35;;;;;;;;;;;7.60;86.50;;;;;;5094192;28;19919;-35
2023/03/14 10:05:01;;;;;;;;;;;7.70;86.50;;;;;;5094318;28;20401;-38
2023/03/14 10:07:26;;;;;;;;;;;7.70;83.20;;;;;;5094034;28;19922;-36
2023/03/14 10:09:52;;;;;;;;;;;7.60;84.30;;;;;;5094266;28;19911;-35
2023/03/14 10:12:18;;;;;;;;;;;7.60;84.40;;;;;;5092949;28;19969;-35
2023/03/14 10:14:46;;;;;;;;;;;7.70;84.00;;;;;;5093966;28;19943;-35
2023/03/14 10:17:12;;;;;;;;;;;7.70;83.70;;;;;;5094091;28;20285;-36
2023/03/14 10:19:50;;;;;;;;;;;7.70;83.00;;;;;;5093852;28;19912;-36
2023/03/14 10:22:16;;;;;;;;;;;7.70;82.50;;;;;;5093914;28;19918;-36
2023/03/14 10:24:45;;;;;;;;;;;7.70;81.40;;;;;;5093856;28;20007;-35
2023/03/14 10:27:18;;;;;;;;;;;7.70;82.50;;;;;;5093855;28;19921;-37
2023/03/14 10:29:57;;;;;;;;;;;7.70;83.00;;;;;;5093603;28;19924;-35
2023/03/14 10:32:28;;;;;;;;;;;7.80;83.20;;;;;;5093680;28;19912;-37
2023/03/14 10:35:26;;;;;;;;;;;7.90;83.40;;;;;;5093535;28;20005;-36
2023/03/14 10:37:55;;;;;;;;;;;8.00;82.50;;;;;;5070546;28;19939;-36
2023/03/14 10:40:25;;;;;;;;;;;8.00;82.40;;;;;;5093798;28;19912;-36
2023/03/14 10:42:51;;;;;;;;;;;8.00;82.20;;;;;;5094189;28;19999;-37
2023/03/14 10:45:20;;;;;;;;;;;8.10;82.70;;;;;;5092274;28;19970;-34
2023/03/14 10:47:49;;;;;;;;;;;8.20;82.10;;;;;;5093352;28;20383;-37
2023/03/14 10:50:23;;;;;;;;;;;8.20;82.60;;;;;;5092227;28;19965;-36
2023/03/14 10:52:50;;;;;;;;;;;8.30;82.10;;;;;;5093357;28;19912;-37
2023/03/14 10:55:16;;;;;;;;;;;8.20;79.30;;;;;;5093418;28;19939;-37
2023/03/14 10:57:42;;;;;;;;;;;8.20;81.00;;;;;;5093333;28;20367;-37
2023/03/14 11:00:16;;;;;;;;;;;8.10;79.80;;;;;;5092148;28;20411;-37
2023/03/14 11:02:48;;;;;;;;;;;8.00;81.20;;;;;;5093440;28;19912;-38
2023/03/14 11:05:16;;;;;;;;;;;8.00;82.20;;;;;;5093340;28;20373;-35
2023/03/14 11:07:43;;;;;;;;;;;7.70;82.40;;;;;;5093295;28;19912;-37
2023/03/14 11:10:14;;;;;;;;;;;7.40;82.70;;;;;;5093346;28;19948;-38
2023/03/14 11:12:45;;;;;;;;;;;7.10;83.40;;;;;;5092986;28;20393;-37
2023/03/14 11:15:17;;;;;;;;;;;6.90;84.40;;;;;;5093057;28;19916;-37
2023/03/14 11:17:54;;;;;;;;;;;6.90;85.20;;;;;;5093027;28;19923;-35
2023/03/14 11:20:30;;;;;;;;;;;6.90;86.00;;;;;;5092919;28;20396;-37
2023/03/14 11:23:01;;;;;;;;;;;7.00;86.20;;;;;;5092985;28;20387;-37
2023/03/14 11:25:27;;;;;;;;;;;7.10;86.30;;;;;;5092618;28;20321;-36
2023/03/14 11:27:52;;;;;;;;;;;7.20;86.50;;;;;;5093218;28;19922;-36
2023/03/14 11:30:18;;;;;;;;;;;7.10;85.30;;;;;;5092441;28;19948;-37
2023/03/14 11:32:52;;;;;;;;;;;7.00;85.60;;;;;;5092681;28;19919;-36
2023/03/14 11:35:21;;;;;;;;;;;6.90;85.80;;;;;;5092491;28;20035;-36
2023/03/14 11:38:06;;;;;;;;;;;6.90;86.00;;;;;;5092644;28;20394;-35
2023/03/14 11:40:33;;;;;;;;;;;6.80;86.30;;;;;;5092194;28;19912;-38
2023/03/14 11:43:17;;;;;;;;;;;6.80;85.90;;;;;;5092500;28;19912;-38
2023/03/14 11:45:43;;;;;;;;;;;6.90;86.00;;;;;;5092411;28;20188;-38
2023/03/14 11:48:17;;;;;;;;;;;6.90;85.20;;;;;;5091033;28;19912;-37
2023/03/14 11:50:44;;;;;;;;;;;7.00;85.50;;;;;;5092313;28;20010;-37
2023/03/14 11:53:13;;;;;;;;;;;6.90;85.10;;;;;;5092188;28;19920;-38
2023/03/14 11:55:40;;;;;;;;;;;7.00;83.30;;;;;;5091987;28;19916;-36
2023/03/14 11:58:12;;;;;;;;;;;7.00;83.10;;;;;;5092065;28;19919;-38
2023/03/14 12:00:38;;;;;;;;;;;7.00;81.00;;;;;;5091540;28;19912;-36
2023/03/14 12:03:10;;;;;;;;;;;7.00;81.90;;;;;;5092288;28;20304;-36
2023/03/14 12:05:54;;;;;;;;;;;7.10;82.10;;;;;;5091940;28;19972;-42
2023/03/14 12:08:25;;;;;;;;;;;7.40;82.80;;;;;;5091753;28;20389;-36
2023/03/14 12:11:00;;;;;;;;;;;7.60;79.80;;;;;;5092081;28;19919;-36
2023/03/14 12:13:28;;;;;;;;;;;7.80;79.00;;;;;;5092089;28;19959;-42
2023/03/14 12:15:55;;;;;;;;;;;7.90;77.30;;;;;;5092211;28;19962;-33
2023/03/14 12:18:31;;;;;;;;;;;8.00;77.90;;;;;;5092258;28;19912;-36
2023/03/14 12:20:59;;;;;;;;;;;8.10;76.70;;;;;;5091818;28;19912;-34
2023/03/14 12:23:25;;;;;;;;;;;8.10;73.90;;;;;;5091716;28;19912;-35
2023/03/14 12:26:09;;;;;;;;;;;8.00;70.00;;;;;;5091831;28;19913;-36
2023/03/14 12:28:35;;;;;;;;;;;7.90;70.60;;;;;;5090023;28;19912;-34
2023/03/14 12:31:19;;;;;;;;;;;8.00;73.10;;;;;;5091585;28;20279;-36
2023/03/14 12:34:01;;;;;;;;;;;8.00;70.10;;;;;;5091993;28;19912;-36
2023/03/14 12:36:56;;;;;;;;;;;8.00;67.90;;;;;;5091684;28;19923;-36
2023/03/14 12:39:36;;;;;;;;;;;8.10;65.10;;;;;;5082101;28;19992;-35
2023/03/14 12:42:04;;;;;;;;;;;8.10;63.70;;;;;;5091684;28;19912;-36
2023/03/14 12:44:29;;;;;;;;;;;8.20;65.60;;;;;;5091444;28;20450;-36
2023/03/14 12:46:58;;;;;;;;;;;8.20;60.40;;;;;;5091419;28;20008;-35
2023/03/14 12:49:31;;;;;;;;;;;8.20;60.90;;;;;;5091461;28;20634;-36
2023/03/14 12:52:00;;;;;;;;;;;8.20;62.80;;;;;;5091563;28;20328;-35
2023/03/14 12:54:29;;;;;;;;;;;8.20;63.30;;;;;;5091219;28;20452;-36
2023/03/14 12:57:06;;;;;;;;;;;8.20;61.10;;;;;;5091353;28;19916;-36
2023/03/14 12:59:33;;;;;;;;;;;8.30;62.80;;;;;;5091389;28;20017;-36
2023/03/14 13:02:02;;;;;;;;;;;8.40;61.30;;;;;;5091128;28;20008;-36
2023/03/14 13:04:29;;;;;;;;;;;8.40;60.60;;;;;;5091240;28;20394;-35
2023/03/14 13:06:59;;;;;;;;;;;8.40;60.10;;;;;;5091212;28;19913;-37
2023/03/14 13:09:33;;;;;;;;;;;8.40;58.70;;;;;;5091431;28;19912;-36
2023/03/14 13:12:03;;;;;;;;;;;8.40;59.40;;;;;;5094388;28;19912;-35
2023/03/14 13:14:30;;;;;;;;;;;8.50;58.30;;;;;;5093829;28;20382;-36
2023/03/14 13:16:55;;;;;;;;;;;8.50;57.90;;;;;;5095419;28;19920;-36
2023/03/14 13:19:26;;;;;;;;;;;8.50;57.70;;;;;;5095612;28;19912;-36
2023/03/14 13:21:56;;;;;;;;;;;8.50;58.80;;;;;;5095509;28;19956;-38
2023/03/14 13:24:26;;;;;;;;;;;8.60;59.40;;;;;;5095086;28;19912;-34
2023/03/14 13:26:54;;;;;;;;;;;8.70;60.10;;;;;;5094954;28;19912;-36
2023/03/14 13:29:23;;;;;;;;;;;8.80;58.80;;;;;;5094616;28;19984;-36
2023/03/14 13:31:54;;;;;;;;;;;8.90;58.80;;;;;;5094703;28;19918;-36
2023/03/14 13:34:19;;;;;;;;;;;8.80;56.50;;;;;;5093585;28;19980;-36
2023/03/14 13:36:45;;;;;;;;;;;8.80;56.60;;;;;;5095210;28;19912;-36
2023/03/14 13:39:17;;;;;;;;;;;8.70;57.10;;;;;;5095159;28;19912;-36
2023/03/14 13:41:43;;;;;;;;;;;8.70;57.40;;;;;;5094725;28;19919;-36
2023/03/14 13:44:14;;;;;;;;;;;8.70;57.00;;;;;;5094849;28;19942;-36
2023/03/14 13:46:39;;;;;;;;;;;8.70;57.70;;;;;;5093923;28;19919;-36
2023/03/14 13:49:06;;;;;;;;;;;8.70;56.90;;;;;;5094958;28;19912;-34
2023/03/14 13:51:35;;;;;;;;;;;8.80;56.70;;;;;;5094763;28;19920;-35
2023/03/14 13:54:02;;;;;;;;;;;8.80;57.40;;;;;;5094829;28;20287;-37
2023/03/14 13:56:29;;;;;;;;;;;8.90;54.10;;;;;;5094821;28;19937;-35
2023/03/14 13:58:55;;;;;;;;;;;8.90;54.90;;;;;;5094556;28;19998;-35
2023/03/14 14:01:20;;;;;;;;;;;9.00;55.20;;;;;;5094642;28;20311;-35
2023/03/14 14:03:49;;;;;;;;;;;9.10;54.00;;;;;;5094469;28;19912;-35
2023/03/14 14:06:27;;;;;;;;;;;9.10;55.20;;;;;;5094540;28;19942;-36
2023/03/14 14:08:54;;;;;;;;;;;9.10;54.30;;;;;;5094546;28;19912;-36
2023/03/14 14:11:22;;;;;;;;;;;9.00;53.30;;;;;;5094411;28;19913;-35
2023/03/14 14:13:48;;;;;;;;;;;9.00;55.80;;;;;;5094198;28;19920;-37
2023/03/14 14:16:14;;;;;;;;;;;9.10;55.50;;;;;;5094303;28;19916;-36
2023/03/14 14:18:40;;;;;;;;;;;9.10;55.60;;;;;;5094254;28;19916;-36
2023/03/14 14:21:06;;;;;;;;;;;9.10;52.90;;;;;;5093980;28;20370;-35
2023/03/14 14:23:32;;;;;;;;;;;9.00;52.90;;;;;;5092077;28;20384;-35
2023/03/14 14:25:58;;;;;;;;;;;8.90;53.30;;;;;;5093923;28;19912;-35